Time;durP1;ratioP1;P1;durP2;ratioP2;P2;SDS_P1;SDS_P2;PMS_P1;PMS_P2;Temp;Humidity;BMP_temperature;BMP_pressure;BME280_temperature;BME280_humidity;BME280_pressure;Samples;Min_cycle;Max_cycle;Signal;HPM_P1;HPM_P2
2023/07/20 00:00:07;;;;;;;4.05;1.50;;;20.20;78.10;;;;;;4907746;29;20037;-73
2023/07/20 05:01:33;;;;;;;3.88;1.80;;;18.60;81.80;;;;;;5811619;23;20212;-75
2023/07/20 05:03:58;;;;;;;4.70;1.55;;;18.70;81.70;;;;;;4911377;29;20245;-73
2023/07/20 05:06:24;;;;;;;3.42;1.38;;;18.80;81.70;;;;;;4917468;29;20027;-75
2023/07/20 05:08:50;;;;;;;3.60;1.25;;;18.90;81.30;;;;;;4938366;29;20028;-74
2023/07/20 05:11:16;;;;;;;3.88;1.50;;;19.00;80.90;;;;;;4927879;29;20024;-74
2023/07/20 05:13:45;;;;;;;6.20;1.40;;;19.10;80.90;;;;;;4928525;29;20036;-74
2023/07/20 05:16:11;;;;;;;3.42;1.60;;;19.10;80.70;;;;;;4928959;29;20091;-74
2023/07/20 05:18:36;;;;;;;3.38;1.60;;;19.20;80.70;;;;;;4929202;29;20316;-73
2023/07/20 05:21:03;;;;;;;7.55;1.60;;;19.30;80.10;;;;;;4927788;29;20024;-73
2023/07/20 05:23:29;;;;;;;4.80;1.52;;;19.40;80.10;;;;;;4928281;29;20046;-72
2023/07/20 05:25:58;;;;;;;3.63;1.13;;;19.50;80.00;;;;;;4927688;29;20056;-73
2023/07/20 05:28:26;;;;;;;4.32;1.50;;;19.50;79.80;;;;;;4929454;29;20043;-72
2023/07/20 05:30:52;;;;;;;4.67;1.60;;;19.70;79.30;;;;;;4929224;29;20167;-71
2023/07/20 05:33:21;;;;;;;10.00;1.80;;;19.70;79.10;;;;;;4927434;29;20039;-74
2023/07/20 05:35:47;;;;;;;4.15;1.30;;;19.70;79.00;;;;;;4929040;29;20024;-72
2023/07/20 05:38:13;;;;;;;6.50;1.60;;;19.80;78.80;;;;;;4928352;29;20063;-74
2023/07/20 05:40:43;;;;;;;4.30;1.48;;;19.90;78.70;;;;;;4928780;29;20083;-73
2023/07/20 05:43:10;;;;;;;3.70;1.40;;;20.00;78.10;;;;;;4928636;29;20112;-73
2023/07/20 05:45:36;;;;;;;5.00;1.65;;;20.00;78.30;;;;;;4928941;29;20309;-72
2023/07/20 05:48:01;;;;;;;4.55;1.52;;;20.00;77.60;;;;;;4927243;29;20091;-74
2023/07/20 05:50:27;;;;;;;4.05;1.35;;;19.80;78.20;;;;;;4929061;29;20276;-73
2023/07/20 05:52:54;;;;;;;4.32;1.50;;;19.80;78.50;;;;;;4928362;29;20036;-73
2023/07/20 05:55:20;;;;;;;6.03;1.60;;;19.90;78.50;;;;;;4928542;29;20028;-73
2023/07/20 05:57:47;;;;;;;3.35;1.40;;;19.90;78.90;;;;;;4928578;29;20031;-72
2023/07/20 06:00:14;;;;;;;3.70;1.25;;;20.00;78.30;;;;;;4927076;29;20032;-73
2023/07/20 06:02:41;;;;;;;4.32;1.23;;;20.10;79.20;;;;;;4916103;29;20044;-76
2023/07/20 06:05:11;;;;;;;3.88;1.50;;;20.40;77.70;;;;;;4908021;29;20302;-75
2023/07/20 06:07:38;;;;;;;4.82;1.55;;;20.40;77.60;;;;;;4908162;29;20247;-76
2023/07/20 06:10:05;;;;;;;3.33;1.60;;;20.50;77.30;;;;;;4909213;29;20036;-73
2023/07/20 06:12:32;;;;;;;4.67;1.60;;;20.70;77.00;;;;;;4909338;29;20040;-74
2023/07/20 06:15:02;;;;;;;3.13;1.23;;;20.70;76.90;;;;;;4909019;29;20314;-74
2023/07/20 06:17:27;;;;;;;4.00;1.60;;;20.70;76.70;;;;;;4909476;29;20025;-75
2023/07/20 06:19:53;;;;;;;5.97;1.40;;;20.70;76.90;;;;;;4909444;29;20031;-75
2023/07/20 06:22:19;;;;;;;3.60;1.30;;;20.70;76.90;;;;;;4908589;29;20028;-74
2023/07/20 06:24:44;;;;;;;4.43;1.40;;;20.60;77.10;;;;;;4909139;29;20036;-74
2023/07/20 06:27:10;;;;;;;4.20;1.60;;;20.50;77.80;;;;;;4908829;29;20031;-74
2023/07/20 06:29:35;;;;;;;4.97;1.60;;;20.60;77.90;;;;;;4909089;29;20052;-74
2023/07/20 06:32:01;;;;;;;3.38;1.73;;;20.50;78.20;;;;;;4923177;29;20306;-73
2023/07/20 06:34:27;;;;;;;5.38;1.40;;;20.50;78.20;;;;;;4908992;29;20295;-74
2023/07/20 06:36:52;;;;;;;3.47;1.52;;;20.60;78.20;;;;;;4909010;29;20024;-75
2023/07/20 06:39:18;;;;;;;7.05;1.70;;;20.70;78.10;;;;;;4908341;29;20044;-74
2023/07/20 06:41:44;;;;;;;10.38;2.00;;;20.80;78.00;;;;;;4908560;29;20326;-73
2023/07/20 06:44:10;;;;;;;4.30;1.33;;;20.70;78.40;;;;;;4907284;29;20087;-76
2023/07/20 06:46:36;;;;;;;5.80;1.30;;;20.90;78.40;;;;;;4909018;29;20028;-72
2023/07/20 06:49:07;;;;;;;2.90;1.42;;;20.90;78.20;;;;;;4908302;29;20063;-72
2023/07/20 06:51:33;;;;;;;4.70;1.58;;;21.10;77.90;;;;;;4908819;29;20103;-73
2023/07/20 06:53:59;;;;;;;5.38;1.52;;;21.10;77.50;;;;;;4908417;29;20048;-71
2023/07/20 06:56:24;;;;;;;4.13;1.40;;;21.00;77.80;;;;;;4907373;29;20332;-71
2023/07/20 06:58:50;;;;;;;7.38;1.40;;;20.90;78.10;;;;;;4908417;29;20028;-72
2023/07/20 07:01:16;;;;;;;4.72;1.50;;;21.00;78.10;;;;;;4906793;29;20059;-71
2023/07/20 07:03:43;;;;;;;4.60;1.40;;;21.00;78.00;;;;;;4908585;29;20115;-71
2023/07/20 07:06:10;;;;;;;6.90;1.52;;;21.00;77.50;;;;;;4907718;29;20035;-72
2023/07/20 07:08:35;;;;;;;6.40;1.35;;;21.10;77.20;;;;;;4908295;29;20044;-72
2023/07/20 07:11:01;;;;;;;6.97;1.70;;;21.00;77.70;;;;;;4908010;29;20092;-73
2023/07/20 07:13:27;;;;;;;4.80;1.55;;;20.80;77.90;;;;;;4908134;29;20051;-71
2023/07/20 07:15:53;;;;;;;4.68;1.60;;;20.90;78.80;;;;;;4908218;29;20036;-71
2023/07/20 07:18:20;;;;;;;4.45;1.67;;;21.00;77.50;;;;;;4907086;29;20313;-72
2023/07/20 07:20:52;;;;;;;5.43;1.40;;;21.00;78.00;;;;;;4907976;29;20047;-73
2023/07/20 07:23:18;;;;;;;4.70;1.50;;;21.10;77.80;;;;;;4907734;29;20045;-73
2023/07/20 07:25:44;;;;;;;4.38;1.60;;;21.20;77.60;;;;;;4908011;29;20043;-73
2023/07/20 07:28:10;;;;;;;4.80;1.75;;;21.10;77.40;;;;;;4907523;29;20028;-71
2023/07/20 07:30:36;;;;;;;7.07;1.60;;;21.30;77.60;;;;;;4908240;29;20028;-72
2023/07/20 07:33:01;;;;;;;3.75;1.50;;;21.60;76.50;;;;;;4907096;29;20111;-72
2023/07/20 07:35:27;;;;;;;5.97;2.05;;;21.70;75.40;;;;;;4907863;29;20028;-71
2023/07/20 07:37:53;;;;;;;4.20;1.52;;;21.70;75.60;;;;;;4908003;29;20042;-74
2023/07/20 07:40:19;;;;;;;4.22;1.48;;;21.80;75.30;;;;;;4907556;29;20055;-72
2023/07/20 07:42:44;;;;;;;2.42;1.17;;;21.90;75.30;;;;;;4907563;29;20060;-71
2023/07/20 07:45:10;;;;;;;3.25;1.45;;;21.90;74.70;;;;;;4907310;29;20041;-72
2023/07/20 07:47:36;;;;;;;4.07;1.48;;;22.00;74.20;;;;;;4907825;29;20191;-76
2023/07/20 07:50:02;;;;;;;2.95;1.33;;;22.00;74.60;;;;;;4907159;29;20036;-72
2023/07/20 07:52:28;;;;;;;3.67;1.58;;;22.10;74.20;;;;;;4906729;29;20040;-72
2023/07/20 07:54:54;;;;;;;3.40;1.55;;;22.10;74.00;;;;;;4922209;29;20203;-74
2023/07/20 07:57:20;;;;;;;3.85;1.48;;;22.10;74.10;;;;;;4907088;29;20028;-71
2023/07/20 07:59:45;;;;;;;4.22;1.75;;;22.30;73.80;;;;;;4906339;29;20278;-73
2023/07/20 08:02:11;;;;;;;4.78;1.52;;;22.70;72.80;;;;;;4905463;29;20067;-73
2023/07/20 08:04:37;;;;;;;3.15;1.40;;;23.20;71.80;;;;;;4906453;29;20098;-72
2023/07/20 08:07:04;;;;;;;5.57;1.33;;;23.40;70.50;;;;;;4907194;29;20048;-72
2023/07/20 08:09:30;;;;;;;3.33;1.50;;;23.70;70.20;;;;;;4907200;29;20037;-73
2023/07/20 08:11:55;;;;;;;3.25;1.40;;;24.00;69.30;;;;;;4907218;29;20329;-73
2023/07/20 08:14:21;;;;;;;3.97;1.50;;;24.10;69.10;;;;;;4921351;29;20047;-73
2023/07/20 08:16:47;;;;;;;3.15;1.60;;;24.20;67.60;;;;;;4907172;29;20036;-71
2023/07/20 08:19:13;;;;;;;4.55;1.52;;;23.90;68.20;;;;;;4906930;29;20060;-73
2023/07/20 08:21:38;;;;;;;3.13;1.27;;;23.80;68.70;;;;;;4907242;29;20060;-71
2023/07/20 08:24:04;;;;;;;3.25;1.20;;;23.50;68.10;;;;;;4907048;29;20035;-71
2023/07/20 08:26:30;;;;;;;2.55;1.08;;;23.70;67.90;;;;;;4907436;29;20196;-72
2023/07/20 08:28:56;;;;;;;4.75;1.50;;;23.50;68.40;;;;;;4907700;29;20047;-71
2023/07/20 08:31:22;;;;;;;4.20;1.45;;;23.40;68.80;;;;;;4910817;29;20039;-71
2023/07/20 08:33:48;;;;;;;3.53;1.48;;;23.60;68.70;;;;;;4910239;29;20036;-70
2023/07/20 08:36:14;;;;;;;2.17;1.30;;;23.60;68.40;;;;;;4910111;29;20024;-70
2023/07/20 08:38:39;;;;;;;5.13;1.73;;;23.50;69.40;;;;;;4910609;29;20267;-70
2023/07/20 08:41:05;;;;;;;5.53;1.60;;;23.40;69.20;;;;;;4893675;29;20031;-70
2023/07/20 08:43:33;;;;;;;4.47;1.58;;;23.20;70.00;;;;;;4910556;29;20052;-70
2023/07/20 08:45:59;;;;;;;4.60;1.60;;;22.90;70.40;;;;;;4910847;29;20340;-71
2023/07/20 08:48:27;;;;;;;3.97;1.40;;;22.90;70.50;;;;;;4910340;29;20044;-70
2023/07/20 08:50:57;;;;;;;3.70;1.45;;;23.00;70.50;;;;;;4910620;29;20065;-70
2023/07/20 08:53:22;;;;;;;5.22;1.50;;;23.30;68.30;;;;;;4925061;29;20044;-70
2023/07/20 08:55:51;;;;;;;1.98;1.00;;;23.70;67.50;;;;;;4910379;29;20039;-71
2023/07/20 08:58:17;;;;;;;6.80;1.58;;;23.80;66.50;;;;;;4909953;29;20310;-72
2023/07/20 09:00:44;;;;;;;4.28;1.42;;;23.90;66.70;;;;;;4910479;29;20039;-74
2023/07/20 09:03:10;;;;;;;5.57;1.42;;;24.20;66.70;;;;;;4909529;29;20048;-68
2023/07/20 09:05:36;;;;;;;16.23;3.10;;;24.40;66.30;;;;;;4910544;29;20039;-69
2023/07/20 09:08:05;;;;;;;4.78;1.20;;;24.10;66.60;;;;;;4910463;29;20020;-76
2023/07/20 09:10:31;;;;;;;5.57;1.15;;;24.00;66.50;;;;;;4909283;29;20037;-70
2023/07/20 09:12:56;;;;;;;4.40;1.42;;;23.70;67.30;;;;;;4909939;29;20051;-69
2023/07/20 09:15:23;;;;;;;4.28;1.20;;;23.70;67.20;;;;;;4909507;29;20032;-70
2023/07/20 09:17:50;;;;;;;3.70;1.10;;;23.80;67.60;;;;;;4910659;29;20028;-71
2023/07/20 09:20:19;;;;;;;3.75;1.20;;;24.00;66.20;;;;;;4909906;29;20063;-70
2023/07/20 09:22:45;;;;;;;3.90;1.30;;;24.00;65.70;;;;;;4910003;29;20032;-70
2023/07/20 09:25:19;;;;;;;3.45;1.42;;;24.10;65.70;;;;;;4909655;29;20112;-70
2023/07/20 09:27:47;;;;;;;10.50;1.80;;;24.10;64.70;;;;;;4909897;29;20048;-71
2023/07/20 09:30:14;;;;;;;13.57;2.40;;;24.10;64.40;;;;;;4909614;29;20036;-71
2023/07/20 09:32:47;;;;;;;4.28;1.35;;;24.00;64.80;;;;;;4909888;29;20048;-71
2023/07/20 09:35:14;;;;;;;3.40;1.20;;;24.50;64.00;;;;;;4909610;29;20032;-69
2023/07/20 09:37:45;;;;;;;3.15;1.55;;;24.70;64.00;;;;;;4908927;29;20248;-70
2023/07/20 09:40:11;;;;;;;4.45;1.30;;;24.70;63.60;;;;;;4908584;29;20035;-70
2023/07/20 09:42:38;;;;;;;2.50;1.10;;;24.50;65.10;;;;;;4909641;29;20043;-70
2023/07/20 09:45:07;;;;;;;3.70;1.30;;;24.20;64.30;;;;;;4909493;29;20028;-70
2023/07/20 09:47:37;;;;;;;4.15;1.27;;;24.00;64.90;;;;;;4909344;29;20322;-70
2023/07/20 09:50:03;;;;;;;5.25;1.48;;;23.80;65.40;;;;;;4909950;29;20255;-70
2023/07/20 09:52:29;;;;;;;3.05;1.10;;;23.80;65.30;;;;;;4909468;29;20032;-70
2023/07/20 09:54:56;;;;;;;3.90;1.20;;;23.90;64.40;;;;;;4909524;29;20164;-76
2023/07/20 09:57:22;;;;;;;4.55;1.60;;;24.10;62.70;;;;;;4909098;29;20032;-71
2023/07/20 09:59:48;;;;;;;4.90;1.23;;;24.50;62.60;;;;;;4909325;29;20207;-70
2023/07/20 10:02:30;;;;;;;2.70;1.08;;;24.80;62.00;;;;;;4908804;29;20057;-71
2023/07/20 10:04:58;;;;;;;2.88;0.98;;;24.90;62.00;;;;;;4909705;29;20079;-72
2023/07/20 10:07:27;;;;;;;3.58;1.30;;;24.90;61.60;;;;;;4908743;29;20039;-72
2023/07/20 10:09:55;;;;;;;3.53;1.20;;;25.00;62.00;;;;;;4909659;29;20031;-71
2023/07/20 10:12:23;;;;;;;3.60;1.00;;;25.10;61.40;;;;;;4908786;29;20032;-73
2023/07/20 10:15:00;;;;;;;3.60;1.38;;;25.00;61.30;;;;;;4909706;29;20069;-71
2023/07/20 10:17:26;;;;;;;2.42;1.02;;;24.90;60.80;;;;;;4908757;29;20378;-71
2023/07/20 10:19:56;;;;;;;4.47;0.85;;;24.90;60.80;;;;;;4909019;29;20032;-70
2023/07/20 10:22:26;;;;;;;2.05;0.85;;;25.20;60.10;;;;;;4908663;29;20222;-72
2023/07/20 10:24:58;;;;;;;5.13;0.93;;;25.10;60.60;;;;;;4909086;29;20036;-74
2023/07/20 10:27:24;;;;;;;2.97;0.98;;;25.40;59.10;;;;;;4908560;29;20036;-71
2023/07/20 10:29:53;;;;;;;2.28;1.05;;;25.30;58.50;;;;;;4909047;29;20021;-73
2023/07/20 10:32:20;;;;;;;3.33;1.25;;;25.20;58.30;;;;;;4908400;29;20088;-72
2023/07/20 10:34:55;;;;;;;2.05;0.95;;;25.10;58.50;;;;;;4909594;29;20044;-74
2023/07/20 10:37:50;;;;;;;3.97;1.73;;;25.20;58.40;;;;;;4908628;29;20219;-73
2023/07/20 10:40:31;;;;;;;3.10;0.93;;;25.00;58.00;;;;;;4908637;29;20096;-72
2023/07/20 10:43:04;;;;;;;3.95;0.98;;;25.00;58.80;;;;;;4909121;29;20032;-72
2023/07/20 10:45:53;;;;;;;3.30;0.93;;;25.10;59.20;;;;;;4908785;29;20058;-72
2023/07/20 10:48:24;;;;;;;2.05;0.70;;;25.50;58.10;;;;;;4908520;29;20032;-71
2023/07/20 10:51:13;;;;;;;2.80;0.85;;;25.50;57.60;;;;;;4907769;29;20040;-73
2023/07/20 10:53:39;;;;;;;1.98;0.80;;;25.40;57.70;;;;;;4908545;29;20048;-71
2023/07/20 10:56:15;;;;;;;2.20;0.80;;;25.50;57.00;;;;;;4908678;29;20030;-73
2023/07/20 10:58:41;;;;;;;3.40;1.00;;;25.90;57.10;;;;;;4908498;29;20041;-73
2023/07/20 11:01:08;;;;;;;5.03;1.15;;;26.00;56.60;;;;;;4908372;29;20040;-74
2023/07/20 11:03:38;;;;;;;2.20;0.85;;;26.30;56.40;;;;;;4922263;29;20135;-73
2023/07/20 11:06:26;;;;;;;1.63;0.77;;;26.30;56.40;;;;;;4908410;29;20092;-75
2023/07/20 11:09:14;;;;;;;2.47;0.88;;;26.30;55.80;;;;;;4908133;29;20044;-73
2023/07/20 11:11:44;;;;;;;2.55;0.70;;;26.30;55.50;;;;;;4908426;29;20058;-72
2023/07/20 11:14:21;;;;;;;2.42;0.70;;;26.30;55.90;;;;;;4908443;29;20046;-72
2023/07/20 11:16:48;;;;;;;3.95;2.08;;;26.30;56.10;;;;;;4908169;29;20390;-75
2023/07/20 11:19:26;;;;;;;5.03;1.10;;;26.40;55.40;;;;;;4907626;29;20040;-73
2023/07/20 11:21:57;;;;;;;2.25;0.82;;;26.60;55.40;;;;;;4908472;29;20477;-72
2023/07/20 11:24:23;;;;;;;4.03;1.08;;;26.70;54.30;;;;;;4907794;29;20045;-73
2023/07/20 11:26:51;;;;;;;2.35;0.70;;;26.80;54.30;;;;;;4908440;29;20031;-72
2023/07/20 11:29:19;;;;;;;2.08;0.82;;;27.00;53.50;;;;;;4907617;29;20263;-70
2023/07/20 11:31:46;;;;;;;5.25;0.90;;;26.90;53.30;;;;;;4908295;29;20033;-72
2023/07/20 11:34:14;;;;;;;2.08;0.95;;;27.20;54.00;;;;;;4908055;29;20045;-72
2023/07/20 11:36:41;;;;;;;3.20;0.70;;;27.30;53.60;;;;;;4907984;29;20044;-74
2023/07/20 11:39:11;;;;;;;4.70;0.90;;;27.50;53.50;;;;;;4908050;29;20045;-71
2023/07/20 11:41:39;;;;;;;2.20;0.80;;;27.90;53.40;;;;;;4905606;29;20037;-74
2023/07/20 11:44:07;;;;;;;2.83;0.82;;;28.70;52.20;;;;;;4899760;29;20088;-72
2023/07/20 11:46:34;;;;;;;2.63;1.05;;;29.00;52.30;;;;;;4906953;29;20032;-72
2023/07/20 11:49:00;;;;;;;2.17;1.00;;;29.10;51.90;;;;;;4908016;29;20303;-71
2023/07/20 11:51:30;;;;;;;3.17;0.98;;;28.80;51.20;;;;;;4937164;29;20036;-71
2023/07/20 11:53:57;;;;;;;1.80;0.70;;;28.60;51.50;;;;;;4907663;29;20317;-72
2023/07/20 11:56:24;;;;;;;2.28;0.98;;;29.30;50.90;;;;;;4906789;29;20046;-72
2023/07/20 11:58:53;;;;;;;14.13;2.13;;;30.40;50.30;;;;;;4907778;29;20056;-72
2023/07/20 12:01:20;;;;;;;2.30;0.88;;;31.80;49.00;;;;;;4906744;29;20322;-73
2023/07/20 12:03:48;;;;;;;7.93;6.78;;;32.90;47.60;;;;;;4907562;29;20048;-71
2023/07/20 12:06:14;;;;;;;3.58;0.90;;;33.40;46.60;;;;;;4907621;29;20040;-72
2023/07/20 12:08:41;;;;;;;3.40;1.17;;;33.70;46.00;;;;;;4906784;29;20046;-71
2023/07/20 12:11:08;;;;;;;2.97;0.70;;;33.00;46.70;;;;;;4907773;29;20103;-72
2023/07/20 12:13:43;;;;;;;3.25;0.80;;;32.20;46.70;;;;;;4906855;29;20055;-70
2023/07/20 12:16:16;;;;;;;2.60;0.77;;;31.90;46.60;;;;;;4907627;29;20081;-72
2023/07/20 12:18:43;;;;;;;4.05;0.95;;;32.30;46.40;;;;;;4907531;29;20272;-74
2023/07/20 12:21:10;;;;;;;2.75;0.80;;;33.20;46.40;;;;;;4907674;29;20091;-70
2023/07/20 12:23:40;;;;;;;4.00;0.80;;;34.60;45.20;;;;;;4906832;29;20036;-72
2023/07/20 12:26:08;;;;;;;2.00;0.82;;;35.90;43.40;;;;;;4922127;29;20081;-71
2023/07/20 12:28:35;;;;;;;;;;;36.10;43.10;;;;;;4907566;29;20024;-70
2023/07/20 12:31:01;;;;;;;1.92;0.60;;;35.40;42.80;;;;;;4907290;29;19907;-72
2023/07/20 12:33:27;;;;;;;1.95;0.70;;;34.70;43.20;;;;;;4906642;29;20041;-71
2023/07/20 12:35:55;;;;;;;4.85;0.60;;;33.60;43.90;;;;;;4907395;29;20259;-70
2023/07/20 12:38:23;;;;;;;3.47;0.93;;;32.80;45.00;;;;;;4906890;29;20186;-69
2023/07/20 12:40:49;;;;;;;10.82;1.23;;;32.80;45.40;;;;;;4907156;29;20040;-69
2023/07/20 12:43:14;;;;;;;4.97;0.98;;;33.90;44.60;;;;;;4907046;29;20272;-71
2023/07/20 12:45:41;;;;;;;2.17;0.70;;;33.70;44.60;;;;;;4905732;29;20047;-75
2023/07/20 12:48:07;;;;;;;1.38;0.60;;;33.60;45.10;;;;;;4907100;29;20112;-72
2023/07/20 12:50:32;;;;;;;1.38;0.70;;;34.30;44.90;;;;;;4905768;29;20049;-71
2023/07/20 12:52:58;;;;;;;5.28;0.90;;;34.70;44.40;;;;;;4906878;29;20036;-71
2023/07/20 12:55:27;;;;;;;2.80;0.80;;;35.40;43.80;;;;;;4906701;29;20040;-71
2023/07/20 12:57:55;;;;;;;2.95;0.80;;;36.40;42.70;;;;;;4907093;29;20036;-71
2023/07/20 13:00:24;;;;;;;2.33;0.80;;;37.40;42.70;;;;;;4896691;29;20318;-69
2023/07/20 13:02:50;;;;;;;7.90;1.65;;;38.20;42.10;;;;;;4888445;29;20112;-70
2023/07/20 13:05:16;;;;;;;3.15;0.70;;;38.00;41.50;;;;;;4888093;29;20033;-69
2023/07/20 13:07:42;;;;;;;2.67;0.70;;;38.50;40.70;;;;;;4887483;29;20025;-73
2023/07/20 13:10:10;;;;;;;1.70;0.60;;;38.30;41.00;;;;;;4888613;29;20168;-71
2023/07/20 13:12:37;;;;;;;3.20;0.65;;;36.90;41.20;;;;;;4886878;29;20218;-71
2023/07/20 13:15:05;;;;;;;3.05;0.80;;;35.80;42.10;;;;;;4889070;29;20215;-71
2023/07/20 13:17:40;;;;;;;2.00;0.68;;;35.50;42.60;;;;;;4892691;29;20052;-71
2023/07/20 13:20:09;;;;;;;2.03;0.70;;;35.80;42.50;;;;;;4910177;29;20212;-71
2023/07/20 13:22:36;;;;;;;4.03;0.93;;;36.70;41.70;;;;;;4910160;29;20036;-71
2023/07/20 13:25:02;;;;;;;4.55;0.98;;;36.90;41.80;;;;;;4910558;29;20099;-69
2023/07/20 13:27:28;;;;;;;4.05;0.77;;;38.20;41.50;;;;;;4909958;29;20035;-69
2023/07/20 13:29:53;;;;;;;3.90;2.47;;;39.80;40.40;;;;;;4907211;29;20028;-69
2023/07/20 13:32:19;;;;;;;4.68;1.00;;;40.70;39.60;;;;;;4908719;29;20099;-71
2023/07/20 13:34:45;;;;;;;5.45;0.93;;;41.30;38.90;;;;;;4909457;29;20045;-71
2023/07/20 13:37:11;;;;;;;3.42;0.73;;;41.60;38.40;;;;;;4909935;29;20063;-71
2023/07/20 13:39:37;;;;;;;1.67;0.50;;;40.90;38.60;;;;;;4909813;29;20037;-70
2023/07/20 13:42:05;;;;;;;1.83;0.60;;;39.50;38.70;;;;;;4910355;29;20043;-69
2023/07/20 13:44:34;;;;;;;4.25;0.98;;;37.70;39.80;;;;;;4909146;29;20223;-73
2023/07/20 13:47:00;;;;;;;2.60;0.60;;;36.30;40.80;;;;;;4910697;29;20040;-71
2023/07/20 13:49:27;;;;;;;1.43;0.60;;;36.90;40.40;;;;;;4909540;29;20036;-71
2023/07/20 13:51:53;;;;;;;1.70;0.52;;;35.80;41.10;;;;;;4909762;29;20036;-71
2023/07/20 13:54:19;;;;;;;1.70;0.70;;;36.00;41.00;;;;;;4909687;29;20057;-72
2023/07/20 13:56:45;;;;;;;9.90;1.55;;;36.90;40.60;;;;;;4909359;29;20040;-70
2023/07/20 13:59:10;;;;;;;3.90;0.90;;;36.80;39.90;;;;;;4909868;29;20032;-71
2023/07/20 14:01:36;;;;;;;3.15;0.80;;;37.10;40.70;;;;;;4908894;29;20044;-71
2023/07/20 14:04:02;;;;;;;3.05;0.70;;;38.40;39.90;;;;;;4909964;29;20302;-71
2023/07/20 14:06:30;;;;;;;2.63;0.90;;;39.40;39.80;;;;;;4908904;29;20036;-70
2023/07/20 14:08:57;;;;;;;2.47;0.60;;;40.90;38.90;;;;;;4909647;29;20037;-71
2023/07/20 14:11:23;;;;;;;2.55;0.60;;;41.40;38.20;;;;;;4909540;29;20041;-69
2023/07/20 14:13:50;;;;;;;1.85;0.88;;;41.90;37.40;;;;;;4909124;29;20063;-69
2023/07/20 14:16:16;;;;;;;5.97;0.63;;;42.60;37.50;;;;;;4909715;29;20043;-72
2023/07/20 14:18:42;;;;;;;4.30;0.80;;;42.00;37.00;;;;;;4909050;29;20033;-70
2023/07/20 14:21:08;;;;;;;2.35;0.68;;;40.80;37.80;;;;;;4909321;29;20317;-70
2023/07/20 14:23:34;;;;;;;2.47;0.80;;;41.10;38.20;;;;;;4907718;29;20040;-71
2023/07/20 14:26:00;;;;;;;2.15;0.63;;;41.60;37.90;;;;;;4909118;29;20041;-70
2023/07/20 14:28:25;;;;;;;1.92;0.80;;;41.70;37.00;;;;;;4908758;29;20043;-72
2023/07/20 14:30:51;;;;;;;2.65;0.77;;;42.00;37.20;;;;;;4908929;29;20332;-70
2023/07/20 14:33:17;;;;;;;2.38;0.68;;;42.00;36.90;;;;;;4908659;29;20045;-71
2023/07/20 14:35:42;;;;;;;1.75;0.70;;;41.90;36.90;;;;;;4908033;29;20032;-70
2023/07/20 14:38:08;;;;;;;4.70;2.17;;;42.10;36.90;;;;;;4909134;29;20034;-71
2023/07/20 14:40:34;;;;;;;2.38;1.58;;;42.40;37.30;;;;;;4908861;29;20059;-69
2023/07/20 14:43:03;;;;;;;2.83;0.60;;;42.80;36.10;;;;;;4908836;29;20037;-71
2023/07/20 14:45:28;;;;;;;2.47;0.60;;;43.40;36.30;;;;;;4908509;29;20029;-71
2023/07/20 14:47:54;;;;;;;1.55;0.57;;;44.30;35.70;;;;;;4908902;29;20039;-74
2023/07/20 14:50:21;;;;;;;2.65;1.65;;;44.40;35.40;;;;;;4907799;29;20144;-71
2023/07/20 14:52:46;;;;;;;2.05;0.70;;;44.00;35.60;;;;;;4908592;29;20124;-71
2023/07/20 14:55:13;;;;;;;1.98;0.85;;;44.00;35.20;;;;;;4908978;29;20248;-74
2023/07/20 14:57:39;;;;;;;1.50;0.60;;;43.60;35.70;;;;;;4908373;29;20306;-73
2023/07/20 15:00:10;;;;;;;1.70;0.70;;;42.90;35.40;;;;;;4907374;29;20052;-71
2023/07/20 15:02:39;;;;;;;1.50;0.70;;;42.90;35.20;;;;;;4907641;29;20067;-70
2023/07/20 15:05:09;;;;;;;1.98;0.65;;;41.90;35.90;;;;;;4908364;29;20047;-71
2023/07/20 15:07:34;;;;;;;4.68;0.63;;;42.20;36.10;;;;;;4901174;29;20108;-72
2023/07/20 15:10:01;;;;;;;1.30;0.45;;;42.50;35.50;;;;;;4889913;29;20192;-70
2023/07/20 15:12:27;;;;;;;1.65;0.68;;;41.20;35.50;;;;;;4889551;29;20036;-71
2023/07/20 15:15:10;;;;;;;2.33;0.80;;;41.80;36.20;;;;;;4889955;29;20047;-71
2023/07/20 15:17:37;;;;;;;1.33;0.50;;;42.70;35.60;;;;;;4889225;29;20060;-70
2023/07/20 15:20:06;;;;;;;;;;;43.20;35.80;;;;;;4890193;29;20025;-69
2023/07/20 15:22:33;;;;;;;1.45;0.60;;;43.00;35.10;;;;;;4901078;29;19907;-70
2023/07/20 15:24:59;;;;;;;1.60;0.45;;;42.50;35.60;;;;;;4908294;29;20043;-70
2023/07/20 15:27:24;;;;;;;2.20;0.70;;;42.70;35.50;;;;;;4907900;29;20381;-70
2023/07/20 15:29:50;;;;;;;2.10;0.65;;;42.90;35.50;;;;;;4907314;29;20064;-71
2023/07/20 15:32:18;;;;;;;2.15;0.70;;;43.00;35.30;;;;;;4907928;29;20058;-71
2023/07/20 15:34:44;;;;;;;2.85;1.00;;;42.80;35.50;;;;;;4907598;29;20044;-69
2023/07/20 15:37:10;;;;;;;2.35;0.50;;;42.60;35.80;;;;;;4907824;29;20047;-69
2023/07/20 15:39:36;;;;;;;5.20;0.70;;;41.10;35.90;;;;;;4901546;29;20028;-70
2023/07/20 15:42:03;;;;;;;1.48;0.52;;;41.30;35.90;;;;;;4894428;29;20047;-71
2023/07/20 15:44:28;;;;;;;2.83;0.73;;;41.10;35.90;;;;;;4888507;29;20228;-71
2023/07/20 15:46:54;;;;;;;1.98;0.80;;;40.60;36.00;;;;;;4907674;29;20035;-70
2023/07/20 15:49:20;;;;;;;1.58;0.60;;;39.70;36.40;;;;;;4891250;29;20036;-70
2023/07/20 15:51:46;;;;;;;2.15;0.70;;;40.30;36.30;;;;;;4907442;29;20032;-71
2023/07/20 15:54:13;;;;;;;2.55;0.65;;;40.70;36.60;;;;;;4907776;29;20378;-70
2023/07/20 15:56:40;;;;;;;4.00;0.70;;;41.90;35.50;;;;;;4907676;29;20033;-70
2023/07/20 15:59:08;;;;;;;2.60;0.73;;;42.10;35.60;;;;;;4891484;29;20092;-71
2023/07/20 16:01:33;;;;;;;3.05;0.68;;;41.30;36.00;;;;;;4889424;29;20036;-71
2023/07/20 16:04:00;;;;;;;2.13;0.70;;;41.10;35.90;;;;;;4890114;29;20089;-72
2023/07/20 16:06:26;;;;;;;2.13;0.60;;;41.00;36.50;;;;;;4894383;29;20310;-70
2023/07/20 16:08:52;;;;;;;1.57;0.60;;;40.00;36.40;;;;;;4907082;29;20330;-74
2023/07/20 16:11:19;;;;;;;1.38;0.60;;;39.20;36.70;;;;;;4907698;29;20100;-72
2023/07/20 16:13:44;;;;;;;2.42;0.70;;;38.90;37.30;;;;;;4906610;29;20154;-70
2023/07/20 16:16:11;;;;;;;1.92;0.70;;;38.90;37.20;;;;;;4907323;29;20224;-72
2023/07/20 16:18:37;;;;;;;2.45;0.82;;;38.30;37.60;;;;;;4906904;29;20028;-71
2023/07/20 16:21:03;;;;;;;2.70;0.70;;;38.10;38.20;;;;;;4907428;29;20322;-71
2023/07/20 16:23:29;;;;;;;1.90;0.80;;;37.90;38.80;;;;;;4907188;29;20048;-69
2023/07/20 16:25:55;;;;;;;1.95;0.80;;;37.70;38.40;;;;;;4907533;29;20031;-70
2023/07/20 16:28:24;;;;;;;1.55;0.75;;;37.90;38.10;;;;;;4907358;29;20029;-71
2023/07/20 16:30:50;;;;;;;4.03;3.40;;;37.60;38.40;;;;;;4907193;29;20091;-73
2023/07/20 16:33:16;;;;;;;2.33;0.77;;;38.00;38.10;;;;;;4906784;29;20096;-73
2023/07/20 16:35:41;;;;;;;2.78;0.73;;;37.50;37.70;;;;;;4906485;29;20020;-70
2023/07/20 16:38:08;;;;;;;3.60;1.10;;;36.50;38.40;;;;;;4906886;29;20285;-70
2023/07/20 16:40:36;;;;;;;2.08;0.80;;;36.10;38.90;;;;;;4906425;29;20031;-71
2023/07/20 16:43:02;;;;;;;1.88;0.60;;;35.90;39.20;;;;;;4906451;29;20046;-70
2023/07/20 16:45:28;;;;;;;1.77;0.95;;;35.30;39.30;;;;;;4907207;29;20060;-71
2023/07/20 16:47:54;;;;;;;4.47;0.85;;;34.80;39.50;;;;;;4906527;29;20097;-72
2023/07/20 16:50:19;;;;;;;2.63;0.73;;;33.90;39.80;;;;;;4908574;29;20063;-71
2023/07/20 16:52:45;;;;;;;2.65;0.68;;;33.10;40.60;;;;;;4910105;29;20020;-72
2023/07/20 16:55:12;;;;;;;2.38;0.68;;;32.40;41.00;;;;;;4910975;29;20036;-70
2023/07/20 16:57:38;;;;;;;2.10;0.80;;;31.60;41.70;;;;;;4910322;29;20218;-70
2023/07/20 17:00:10;;;;;;;2.13;0.88;;;31.20;42.30;;;;;;4910494;29;20032;-69
2023/07/20 17:02:36;;;;;;;1.73;0.70;;;31.00;42.60;;;;;;4910050;29;20318;-69
2023/07/20 17:05:02;;;;;;;3.03;0.85;;;31.00;42.60;;;;;;4910933;29;20059;-70
2023/07/20 17:07:28;;;;;;;4.00;0.90;;;30.70;43.10;;;;;;4910484;29;20068;-73
2023/07/20 17:09:54;;;;;;;2.38;1.00;;;30.40;43.30;;;;;;4910065;29;20291;-71
2023/07/20 17:12:19;;;;;;;1.58;0.75;;;30.40;43.60;;;;;;4910285;29;20062;-70
2023/07/20 17:14:45;;;;;;;1.25;0.57;;;30.50;43.70;;;;;;4909791;29;20041;-72
2023/07/20 17:17:11;;;;;;;1.92;0.90;;;30.60;43.00;;;;;;4910793;29;20037;-72
2023/07/20 17:19:37;;;;;;;2.65;0.80;;;30.50;43.40;;;;;;4910250;29;20036;-69
2023/07/20 17:22:03;;;;;;;1.92;0.77;;;30.60;43.60;;;;;;4910765;29;20028;-71
2023/07/20 17:24:29;;;;;;;2.47;0.63;;;30.40;43.30;;;;;;4910469;29;20044;-70
2023/07/20 17:26:54;;;;;;;1.98;0.70;;;30.60;42.80;;;;;;4909818;29;20068;-71
2023/07/20 17:29:20;;;;;;;3.83;1.60;;;30.30;43.00;;;;;;4907454;29;20063;-71
2023/07/20 17:31:46;;;;;;;1.70;0.70;;;29.70;43.50;;;;;;4909603;29;20095;-70
2023/07/20 17:34:12;;;;;;;2.05;0.73;;;29.50;43.70;;;;;;4910487;29;20087;-75
2023/07/20 17:36:37;;;;;;;2.20;0.68;;;29.00;43.90;;;;;;4909769;29;20028;-72
2023/07/20 17:39:03;;;;;;;1.83;0.70;;;28.80;44.30;;;;;;4909637;29;20306;-71
2023/07/20 17:41:29;;;;;;;2.10;0.70;;;28.60;44.90;;;;;;4909562;29;20064;-71
2023/07/20 17:43:56;;;;;;;1.45;0.60;;;28.40;45.20;;;;;;4909598;29;20358;-71
2023/07/20 17:46:24;;;;;;;2.50;1.05;;;28.50;45.30;;;;;;4909711;29;20207;-70